Time;durP1;ratioP1;P1;durP2;ratioP2;P2;SDS_P1;SDS_P2;PMS_P1;PMS_P2;Temp;Humidity;BMP_temperature;BMP_pressure;BME280_temperature;BME280_humidity;BME280_pressure;Samples;Min_cycle;Max_cycle;Signal;HPM_P1;HPM_P2
2023/09/27 00:00:17;;;;;;;8.52;3.65;;;19.10;99.90;;;;;;5091951;28;20031;-65
2023/09/27 00:02:44;;;;;;;7.03;4.15;;;18.90;99.90;;;;;;5091595;28;20023;-64
2023/09/27 00:05:11;;;;;;;8.27;3.97;;;18.80;99.90;;;;;;5091687;28;20028;-65
2023/09/27 00:07:38;;;;;;;9.55;4.03;;;18.70;99.90;;;;;;5091554;28;20524;-65
2023/09/27 00:10:05;;;;;;;10.60;3.90;;;18.60;99.90;;;;;;5091656;28;20030;-65
2023/09/27 00:12:32;;;;;;;8.25;4.15;;;18.50;99.90;;;;;;5091486;28;20077;-65
2023/09/27 00:14:58;;;;;;;6.05;3.78;;;18.40;99.90;;;;;;5091992;28;20036;-65
2023/09/27 00:17:23;;;;;;;7.25;3.78;;;18.40;99.90;;;;;;5091363;28;20050;-65
2023/09/27 00:19:49;;;;;;;9.45;4.03;;;18.30;99.90;;;;;;5089703;28;20080;-64
2023/09/27 00:22:15;;;;;;;7.10;4.07;;;18.20;99.90;;;;;;5091499;28;20024;-65
2023/09/27 00:24:41;;;;;;;7.38;3.47;;;18.10;99.90;;;;;;5091549;28;20494;-64
2023/09/27 00:27:08;;;;;;;7.03;3.70;;;18.10;99.90;;;;;;5091296;28;20391;-65
2023/09/27 00:29:34;;;;;;;7.40;3.50;;;18.00;99.90;;;;;;5091252;28;20056;-65
2023/09/27 00:32:00;;;;;;;8.23;3.72;;;18.10;99.90;;;;;;5091176;28;20110;-65
2023/09/27 00:34:26;;;;;;;7.45;3.97;;;18.10;99.90;;;;;;5090985;28;20162;-65
2023/09/27 00:36:51;;;;;;;6.95;3.53;;;18.10;99.90;;;;;;5091622;28;20043;-65
2023/09/27 00:39:17;;;;;;;8.65;4.43;;;18.10;99.90;;;;;;5091360;28;20032;-65
2023/09/27 00:41:43;;;;;;;7.95;4.78;;;18.10;99.90;;;;;;5091094;28;20105;-65
2023/09/27 00:44:08;;;;;;;7.75;4.63;;;18.20;99.90;;;;;;5090217;28;20020;-65
2023/09/27 00:46:35;;;;;;;8.57;4.72;;;18.20;99.90;;;;;;5091195;28;20035;-65
2023/09/27 00:49:01;;;;;;;7.90;4.60;;;18.20;99.90;;;;;;5090862;28;20019;-65
2023/09/27 00:51:27;;;;;;;9.70;4.88;;;18.40;99.90;;;;;;5090988;28;20406;-65
2023/09/27 00:53:55;;;;;;;7.60;4.95;;;18.50;99.90;;;;;;5091323;28;20024;-65
2023/09/27 00:56:21;;;;;;;9.32;4.60;;;18.70;99.90;;;;;;5089611;28;20020;-65
2023/09/27 00:58:48;;;;;;;9.18;4.70;;;18.90;99.90;;;;;;5091085;28;20028;-65
2023/09/27 01:01:14;;;;;;;6.45;4.45;;;19.00;99.90;;;;;;5090016;28;20020;-65
2023/09/27 01:03:40;;;;;;;8.38;4.35;;;19.10;99.90;;;;;;5090755;28;20028;-65
2023/09/27 01:06:08;;;;;;;7.35;4.70;;;19.20;99.90;;;;;;5090838;28;20036;-65
2023/09/27 01:08:34;;;;;;;6.72;4.30;;;19.20;99.90;;;;;;5090738;28;20097;-65
2023/09/27 01:11:00;;;;;;;7.93;4.38;;;19.10;99.90;;;;;;5090987;28;20028;-65
2023/09/27 01:13:26;;;;;;;6.75;4.10;;;19.10;99.90;;;;;;5091451;28;20032;-65
2023/09/27 01:15:52;;;;;;;6.55;4.28;;;19.10;99.90;;;;;;5090769;28;20928;-64
2023/09/27 01:18:17;;;;;;;6.28;3.70;;;19.20;99.90;;;;;;5090864;28;20028;-65
2023/09/27 01:20:43;;;;;;;9.00;3.40;;;19.10;99.90;;;;;;5090830;28;20031;-65
2023/09/27 01:23:09;;;;;;;7.00;3.67;;;19.20;99.90;;;;;;5090806;28;20069;-65
2023/09/27 01:25:37;;;;;;;7.32;3.40;;;19.20;99.90;;;;;;5090674;28;20383;-65
2023/09/27 01:28:04;;;;;;;5.50;3.05;;;19.20;99.90;;;;;;5090789;28;20059;-65
2023/09/27 01:30:32;;;;;;;7.25;3.65;;;19.10;99.90;;;;;;5091124;28;20024;-65
2023/09/27 01:32:59;;;;;;;5.55;3.40;;;19.00;99.90;;;;;;5090492;28;20132;-65
2023/09/27 01:35:25;;;;;;;5.90;3.50;;;18.80;99.90;;;;;;5090740;28;20016;-64
2023/09/27 01:37:50;;;;;;;6.07;3.67;;;18.60;99.90;;;;;;5091183;28;20401;-65
2023/09/27 01:40:17;;;;;;;7.60;3.42;;;18.50;99.90;;;;;;5090669;28;20082;-65
2023/09/27 01:42:44;;;;;;;7.50;3.42;;;18.30;99.90;;;;;;5090807;28;20556;-65
2023/09/27 01:45:12;;;;;;;6.40;3.40;;;18.30;99.90;;;;;;5090790;28;20028;-65
2023/09/27 01:47:39;;;;;;;6.65;3.50;;;18.20;99.90;;;;;;5090114;28;20071;-65
2023/09/27 01:50:07;;;;;;;7.88;3.60;;;18.20;99.90;;;;;;5090582;28;20031;-65
2023/09/27 01:52:33;;;;;;;6.70;3.47;;;18.20;99.90;;;;;;5090732;28;20110;-65
2023/09/27 01:54:59;;;;;;;6.18;3.47;;;18.00;99.90;;;;;;5092731;28;20052;-64
2023/09/27 01:57:24;;;;;;;7.05;3.63;;;18.10;99.90;;;;;;5094363;28;20035;-65
2023/09/27 01:59:50;;;;;;;5.60;3.58;;;18.00;99.90;;;;;;5094020;28;20390;-65
2023/09/27 02:02:16;;;;;;;6.13;3.72;;;18.00;99.90;;;;;;5093866;28;20035;-65
2023/09/27 02:04:41;;;;;;;6.78;3.65;;;17.90;99.90;;;;;;5094291;28;20020;-65
2023/09/27 02:07:07;;;;;;;7.15;3.42;;;17.90;99.90;;;;;;5094015;28;20094;-65
2023/09/27 02:09:33;;;;;;;7.03;3.72;;;17.90;99.90;;;;;;5094064;28;20481;-65
2023/09/27 02:11:59;;;;;;;5.30;3.35;;;17.90;99.90;;;;;;5094155;28;20036;-65
2023/09/27 02:14:24;;;;;;;6.70;3.53;;;17.80;99.90;;;;;;5093675;28;20032;-65
2023/09/27 02:16:51;;;;;;;7.85;3.40;;;17.90;99.90;;;;;;5093548;28;20039;-65
2023/09/27 02:19:17;;;;;;;6.53;3.30;;;17.80;99.90;;;;;;5094211;28;20099;-65
2023/09/27 02:21:42;;;;;;;7.15;3.33;;;17.70;99.90;;;;;;5093748;28;20178;-65
2023/09/27 02:24:09;;;;;;;5.95;3.20;;;17.80;99.90;;;;;;5093375;28;20486;-65
2023/09/27 02:26:36;;;;;;;5.90;2.95;;;17.90;99.90;;;;;;5093604;28;20132;-65
2023/09/27 02:29:02;;;;;;;5.65;2.80;;;18.10;99.90;;;;;;5093264;28;20027;-64
2023/09/27 02:31:27;;;;;;;4.75;2.90;;;18.30;99.90;;;;;;5093552;28;20046;-65
2023/09/27 02:33:53;;;;;;;7.00;3.03;;;18.30;99.90;;;;;;5093708;28;20016;-65
2023/09/27 02:36:19;;;;;;;5.72;2.80;;;18.50;99.90;;;;;;5093275;28;20494;-65
2023/09/27 02:38:44;;;;;;;6.82;2.60;;;18.60;99.90;;;;;;5093276;28;20063;-65
2023/09/27 02:41:10;;;;;;;4.38;2.88;;;18.80;99.90;;;;;;5093223;28;20032;-65
2023/09/27 02:43:36;;;;;;;8.50;3.20;;;18.70;99.90;;;;;;5093064;28;20051;-65
2023/09/27 02:46:01;;;;;;;7.00;3.10;;;18.80;99.90;;;;;;5093173;28;20427;-65
2023/09/27 02:48:28;;;;;;;8.35;3.70;;;18.80;99.90;;;;;;5093025;28;20547;-65
2023/09/27 02:50:55;;;;;;;8.52;3.78;;;18.80;99.90;;;;;;5093278;28;20032;-65
2023/09/27 02:53:21;;;;;;;9.13;4.63;;;18.70;99.90;;;;;;5093013;28;20032;-65
2023/09/27 02:55:47;;;;;;;7.45;4.30;;;18.70;99.90;;;;;;5093229;28;20128;-65
2023/09/27 02:58:13;;;;;;;8.00;4.30;;;18.80;99.90;;;;;;5092385;28;20026;-65
2023/09/27 03:00:40;;;;;;;7.63;4.00;;;18.80;99.90;;;;;;5092002;28;20398;-65
2023/09/27 03:03:07;;;;;;;5.85;3.90;;;18.60;99.90;;;;;;5092779;28;20020;-64
2023/09/27 03:05:36;;;;;;;5.85;3.17;;;18.50;99.90;;;;;;5091777;28;20035;-65
2023/09/27 03:08:04;;;;;;;4.90;3.17;;;18.40;99.90;;;;;;5092513;28;20052;-65
2023/09/27 03:10:29;;;;;;;5.10;3.10;;;18.20;99.90;;;;;;5092889;28;20024;-65
2023/09/27 03:12:55;;;;;;;6.47;3.17;;;18.00;99.90;;;;;;5092839;28;20372;-65
2023/09/27 03:15:21;;;;;;;6.47;3.22;;;18.00;99.90;;;;;;5092592;28;20023;-65
2023/09/27 03:17:47;;;;;;;9.13;3.30;;;17.90;99.90;;;;;;5092698;28;20020;-65
2023/09/27 03:20:16;;;;;;;4.40;3.00;;;17.70;99.90;;;;;;5092939;28;20032;-65
2023/09/27 03:22:48;;;;;;;7.18;3.47;;;17.60;99.90;;;;;;5091245;28;20017;-65
2023/09/27 03:25:16;;;;;;;6.07;3.00;;;17.60;99.90;;;;;;5092371;28;20100;-65
2023/09/27 03:27:42;;;;;;;6.68;3.22;;;17.60;99.90;;;;;;5092002;28;20044;-65
2023/09/27 03:30:09;;;;;;;7.25;3.15;;;17.50;99.90;;;;;;5092433;28;20073;-65
2023/09/27 03:32:34;;;;;;;5.53;2.95;;;17.50;99.90;;;;;;5092597;28;20032;-65
2023/09/27 03:35:00;;;;;;;8.93;3.20;;;17.40;99.90;;;;;;5092199;28;20028;-65
2023/09/27 03:37:26;;;;;;;5.35;3.15;;;17.40;99.90;;;;;;5092318;28;20028;-65
2023/09/27 03:39:55;;;;;;;5.97;3.22;;;17.20;99.90;;;;;;5092443;28;20030;-65
2023/09/27 03:42:22;;;;;;;7.95;3.25;;;17.30;99.90;;;;;;5092330;28;20032;-66
2023/09/27 03:44:51;;;;;;;4.80;3.05;;;17.30;99.90;;;;;;5092039;28;20131;-65
2023/09/27 03:47:17;;;;;;;5.57;3.53;;;17.30;99.90;;;;;;5092025;28;20126;-65
2023/09/27 03:49:43;;;;;;;6.20;2.90;;;17.30;99.90;;;;;;5092737;28;20064;-65
2023/09/27 03:52:09;;;;;;;5.43;3.00;;;17.30;99.90;;;;;;5092178;28;20032;-65
2023/09/27 03:54:35;;;;;;;6.00;3.25;;;17.30;99.90;;;;;;5091904;28;20390;-65
2023/09/27 03:57:01;;;;;;;7.40;3.33;;;17.30;99.90;;;;;;5091740;28;20028;-65
2023/09/27 03:59:26;;;;;;;6.43;3.00;;;17.30;99.90;;;;;;5092074;28;20027;-65
2023/09/27 04:01:52;;;;;;;4.72;3.10;;;17.30;99.90;;;;;;5091868;28;20036;-65
2023/09/27 04:04:18;;;;;;;5.05;3.08;;;17.40;99.90;;;;;;5092269;28;20031;-65
2023/09/27 04:06:45;;;;;;;5.22;3.15;;;17.60;99.90;;;;;;5091585;28;20131;-65
2023/09/27 04:09:10;;;;;;;5.05;2.97;;;17.80;99.90;;;;;;5091704;28;20057;-65
2023/09/27 04:11:37;;;;;;;5.00;2.92;;;18.00;99.90;;;;;;5091420;28;20063;-65
2023/09/27 04:14:06;;;;;;;7.68;3.05;;;18.10;99.90;;;;;;5091535;28;20103;-65
2023/09/27 04:16:32;;;;;;;6.75;3.03;;;18.20;99.90;;;;;;5091487;28;20115;-66
2023/09/27 04:18:58;;;;;;;5.88;3.15;;;18.30;99.90;;;;;;5091860;28;20055;-65
2023/09/27 04:21:25;;;;;;;4.70;2.90;;;18.30;99.90;;;;;;5091889;28;20031;-65
2023/09/27 04:23:59;;;;;;;5.25;3.10;;;18.30;99.90;;;;;;5091369;28;20028;-65
2023/09/27 04:26:24;;;;;;;4.53;2.90;;;18.40;99.90;;;;;;5091085;28;20060;-66
2023/09/27 04:28:51;;;;;;;6.35;2.63;;;18.40;99.90;;;;;;5091378;28;20058;-65
2023/09/27 04:31:17;;;;;;;5.57;2.83;;;18.40;99.90;;;;;;5091658;28;20020;-66
2023/09/27 04:33:44;;;;;;;3.75;2.70;;;18.30;99.90;;;;;;5091721;28;20032;-65
2023/09/27 04:36:15;;;;;;;4.53;2.85;;;18.30;99.90;;;;;;5091289;28;20406;-65
2023/09/27 04:38:42;;;;;;;5.00;2.88;;;18.30;99.90;;;;;;5091158;28;20035;-65
2023/09/27 04:41:08;;;;;;;6.55;2.80;;;18.20;99.90;;;;;;5090880;28;20495;-65
2023/09/27 04:43:34;;;;;;;4.70;2.90;;;18.00;99.90;;;;;;5091279;28;20039;-65
2023/09/27 04:46:00;;;;;;;6.18;2.78;;;18.00;99.90;;;;;;5090945;28;20028;-65
2023/09/27 04:48:25;;;;;;;5.13;3.00;;;17.80;99.90;;;;;;5091316;28;20031;-65
2023/09/27 04:50:51;;;;;;;7.65;3.10;;;17.70;99.90;;;;;;5091330;28;20028;-65
2023/09/27 04:53:16;;;;;;;5.60;3.22;;;17.60;99.90;;;;;;5089870;28;20040;-65
2023/09/27 04:55:42;;;;;;;5.22;2.97;;;17.40;99.90;;;;;;5090856;28;20028;-65
2023/09/27 04:58:08;;;;;;;7.18;3.40;;;17.40;99.90;;;;;;5090275;28;20077;-65
2023/09/27 05:00:33;;;;;;;4.68;3.00;;;17.30;99.90;;;;;;5091027;28;20016;-65
2023/09/27 05:02:59;;;;;;;5.30;3.42;;;17.20;99.90;;;;;;5091105;28;20024;-66
2023/09/27 05:05:25;;;;;;;5.78;3.50;;;17.20;99.90;;;;;;5090883;28;20020;-65
2023/09/27 05:07:50;;;;;;;8.32;3.72;;;17.10;99.90;;;;;;5090801;28;20514;-65
2023/09/27 05:10:16;;;;;;;6.30;3.53;;;17.10;99.90;;;;;;5090670;28;20371;-65
2023/09/27 05:12:42;;;;;;;5.43;3.33;;;17.10;99.90;;;;;;5091007;28;20084;-65
2023/09/27 05:15:09;;;;;;;5.93;3.38;;;17.00;99.90;;;;;;5090940;28;20028;-65
2023/09/27 05:17:35;;;;;;;7.03;3.20;;;17.00;99.90;;;;;;5090984;28;20086;-65
2023/09/27 05:20:06;;;;;;;7.15;3.30;;;17.00;99.90;;;;;;5091230;28;20028;-65
2023/09/27 05:22:31;;;;;;;5.65;3.33;;;17.00;99.90;;;;;;5090846;28;20052;-65
2023/09/27 05:24:57;;;;;;;5.47;3.63;;;16.90;99.90;;;;;;5090385;28;20544;-66
2023/09/27 05:27:23;;;;;;;6.15;3.65;;;16.90;99.90;;;;;;5090770;28;20055;-65
2023/09/27 05:29:49;;;;;;;7.18;3.42;;;16.90;99.90;;;;;;5092940;28;20051;-66
2023/09/27 05:32:14;;;;;;;4.72;3.42;;;16.90;99.90;;;;;;5095036;28;20052;-65
2023/09/27 05:34:40;;;;;;;8.73;3.53;;;16.90;99.90;;;;;;5094706;28;20081;-66
2023/09/27 05:37:06;;;;;;;6.25;3.85;;;16.90;99.90;;;;;;5094560;28;20525;-66
2023/09/27 05:39:31;;;;;;;6.03;3.45;;;16.90;99.90;;;;;;5094309;28;20410;-65
2023/09/27 05:41:57;;;;;;;5.97;3.50;;;17.10;99.90;;;;;;5094556;28;20028;-65
2023/09/27 05:44:23;;;;;;;3.95;3.53;;;17.30;99.90;;;;;;5094586;28;20020;-65
2023/09/27 05:46:48;;;;;;;6.30;3.35;;;17.50;99.90;;;;;;5094095;28;20025;-65
2023/09/27 05:49:15;;;;;;;4.68;3.17;;;17.60;99.90;;;;;;5094686;28;20468;-65
2023/09/27 05:51:41;;;;;;;5.93;3.20;;;17.70;99.90;;;;;;5094245;28;20060;-65
2023/09/27 05:54:07;;;;;;;4.90;3.40;;;17.80;99.90;;;;;;5094015;28;20020;-65
2023/09/27 05:56:33;;;;;;;6.45;3.30;;;17.80;99.90;;;;;;5094261;28;20143;-66
2023/09/27 05:59:01;;;;;;;6.38;3.05;;;17.90;99.90;;;;;;5094230;28;20538;-65
2023/09/27 06:01:27;;;;;;;5.65;3.20;;;18.00;99.90;;;;;;5094456;28;20174;-65
2023/09/27 06:03:52;;;;;;;6.95;3.22;;;18.00;99.90;;;;;;5093918;28;20104;-65
2023/09/27 06:06:18;;;;;;;7.25;3.30;;;18.10;99.90;;;;;;5094064;28;20119;-65
2023/09/27 06:08:44;;;;;;;6.57;3.42;;;18.10;99.90;;;;;;5093403;28;20131;-65
2023/09/27 06:11:10;;;;;;;4.90;3.58;;;18.10;99.90;;;;;;5094009;28;20119;-65
2023/09/27 06:13:39;;;;;;;4.65;3.10;;;18.10;99.90;;;;;;5093961;28;20036;-65
2023/09/27 06:16:13;;;;;;;4.88;3.63;;;18.00;99.90;;;;;;5093855;28;20036;-66
2023/09/27 06:18:39;;;;;;;4.85;3.60;;;17.90;99.90;;;;;;5093719;28;20526;-66
2023/09/27 06:21:05;;;;;;;4.43;3.20;;;17.80;99.90;;;;;;5093515;28;20052;-66
2023/09/27 06:23:30;;;;;;;5.80;3.50;;;17.70;99.90;;;;;;5093798;28;20024;-66
2023/09/27 06:25:56;;;;;;;5.10;3.70;;;17.50;99.90;;;;;;5093866;28;20024;-66
2023/09/27 06:28:21;;;;;;;5.70;3.70;;;17.40;99.90;;;;;;5093790;28;20036;-66
2023/09/27 06:30:47;;;;;;;5.95;3.83;;;17.30;99.90;;;;;;5093638;28;20039;-65
2023/09/27 06:33:13;;;;;;;4.88;3.55;;;17.30;99.90;;;;;;5093801;28;20028;-66
2023/09/27 06:35:40;;;;;;;5.90;3.55;;;17.20;99.90;;;;;;5093063;28;20027;-66
2023/09/27 06:38:05;;;;;;;7.40;3.95;;;17.30;99.90;;;;;;5093244;28;20063;-66
2023/09/27 06:40:31;;;;;;;6.78;3.80;;;17.20;99.90;;;;;;5093409;28;20418;-66
2023/09/27 06:42:57;;;;;;;6.70;4.20;;;17.10;99.90;;;;;;5091798;28;20111;-64
2023/09/27 06:45:23;;;;;;;6.90;4.00;;;17.10;99.90;;;;;;5093283;28;20150;-65
2023/09/27 06:47:49;;;;;;;6.30;4.05;;;17.10;99.90;;;;;;5093003;28;20040;-65
2023/09/27 06:50:19;;;;;;;4.85;3.92;;;17.10;99.90;;;;;;5092873;28;20024;-66
2023/09/27 06:52:45;;;;;;;7.00;4.68;;;17.20;99.90;;;;;;5093159;28;20093;-65
2023/09/27 06:55:13;;;;;;;8.57;4.63;;;17.10;99.90;;;;;;5092875;28;20032;-66
2023/09/27 06:57:40;;;;;;;6.82;4.32;;;17.20;99.90;;;;;;5092079;28;20024;-66
2023/09/27 07:00:13;;;;;;;6.47;4.40;;;17.20;99.90;;;;;;5092447;28;20023;-66
2023/09/27 07:02:42;;;;;;;8.35;4.50;;;17.10;99.90;;;;;;5092669;28;20024;-66
2023/09/27 07:05:09;;;;;;;9.15;5.07;;;17.20;99.90;;;;;;5093096;28;20032;-66
2023/09/27 07:07:35;;;;;;;8.32;5.05;;;17.30;99.90;;;;;;5092635;28;20479;-66
2023/09/27 07:10:00;;;;;;;6.20;5.03;;;17.30;99.90;;;;;;5092692;28;20052;-65
2023/09/27 07:12:26;;;;;;;7.10;4.95;;;17.40;99.90;;;;;;5092765;28;20032;-65
2023/09/27 07:14:52;;;;;;;8.50;5.18;;;17.50;99.90;;;;;;5093072;28;20102;-65
2023/09/27 07:17:17;;;;;;;6.90;4.97;;;17.70;99.90;;;;;;5092554;28;20035;-65
2023/09/27 07:19:43;;;;;;;6.15;4.57;;;18.00;99.90;;;;;;5092336;28;20035;-64
2023/09/27 07:22:10;;;;;;;7.07;5.10;;;18.30;99.90;;;;;;5092780;28;20154;-65
2023/09/27 07:24:36;;;;;;;7.60;5.10;;;18.50;99.90;;;;;;5092356;28;20096;-65
2023/09/27 07:27:02;;;;;;;8.93;5.13;;;18.60;99.90;;;;;;5092647;28;20036;-65
2023/09/27 07:29:28;;;;;;;6.75;4.43;;;18.80;99.90;;;;;;5092595;28;20031;-65
2023/09/27 07:31:54;;;;;;;7.90;5.20;;;18.90;99.90;;;;;;5092219;28;20039;-65
2023/09/27 07:34:20;;;;;;;7.57;5.00;;;19.10;99.90;;;;;;5092048;28;20016;-66
2023/09/27 07:36:46;;;;;;;8.15;5.32;;;19.00;99.90;;;;;;5092733;28;20073;-65
2023/09/27 07:39:13;;;;;;;9.10;4.75;;;19.20;99.90;;;;;;5091976;28;20020;-65
2023/09/27 07:41:38;;;;;;;9.25;5.55;;;19.30;99.90;;;;;;5092267;28;20065;-65
2023/09/27 07:44:09;;;;;;;8.80;5.03;;;19.40;99.90;;;;;;5091948;28;20386;-65
2023/09/27 07:46:36;;;;;;;9.63;4.88;;;19.50;99.90;;;;;;5091614;28;20032;-65
2023/09/27 07:49:02;;;;;;;9.18;5.15;;;19.60;99.90;;;;;;5091772;28;20436;-65
2023/09/27 07:51:27;;;;;;;8.57;5.13;;;19.70;99.90;;;;;;5091508;28;20032;-65
2023/09/27 07:53:54;;;;;;;7.85;4.97;;;19.60;99.90;;;;;;5091914;28;20035;-65
2023/09/27 07:56:25;;;;;;;11.38;6.25;;;19.60;99.90;;;;;;5092059;28;20497;-65
2023/09/27 07:58:53;;;;;;;9.93;5.50;;;19.60;99.90;;;;;;5091855;28;20039;-65
2023/09/27 08:01:20;;;;;;;9.80;5.35;;;19.50;99.90;;;;;;5091791;28;20028;-65
2023/09/27 08:03:51;;;;;;;8.98;5.43;;;19.40;99.90;;;;;;5091767;28;20059;-65
2023/09/27 08:06:18;;;;;;;9.32;5.25;;;19.40;99.90;;;;;;5091871;28;20044;-65
2023/09/27 08:08:45;;;;;;;10.48;6.20;;;19.40;99.90;;;;;;5091526;28;20048;-64
2023/09/27 08:11:13;;;;;;;8.73;5.95;;;19.40;99.90;;;;;;5091955;28;20038;-66
2023/09/27 08:13:40;;;;;;;8.13;6.18;;;19.50;99.90;;;;;;5090178;28;20399;-65
2023/09/27 08:16:07;;;;;;;11.20;6.38;;;19.50;99.90;;;;;;5091874;28;20016;-66
2023/09/27 08:18:34;;;;;;;9.05;6.53;;;19.50;99.90;;;;;;5091164;28;20024;-66
2023/09/27 08:21:01;;;;;;;9.90;6.57;;;19.60;99.90;;;;;;5091567;28;20486;-65
2023/09/27 08:23:26;;;;;;;11.05;6.50;;;19.60;99.90;;;;;;5091424;28;20058;-65
2023/09/27 08:25:53;;;;;;;10.13;6.85;;;19.70;99.90;;;;;;5091640;28;20498;-66
2023/09/27 08:28:21;;;;;;;12.05;6.57;;;19.80;99.90;;;;;;5091481;28;20104;-66
2023/09/27 08:30:47;;;;;;;10.18;6.60;;;19.90;99.90;;;;;;5091263;28;20447;-66
2023/09/27 08:33:13;;;;;;;9.07;5.85;;;19.90;99.90;;;;;;5091212;28;20063;-66
2023/09/27 08:35:39;;;;;;;9.18;6.60;;;20.00;99.90;;;;;;5091651;28;20040;-64
2023/09/27 08:38:05;;;;;;;8.68;6.18;;;20.10;99.90;;;;;;5091486;28;20178;-65
2023/09/27 08:40:31;;;;;;;8.57;6.43;;;20.20;99.90;;;;;;5091189;28;20056;-66
2023/09/27 08:42:59;;;;;;;11.35;5.43;;;20.30;99.90;;;;;;5091318;28;20059;-65
2023/09/27 08:45:26;;;;;;;8.65;5.72;;;20.30;99.90;;;;;;5091125;28;20024;-65
2023/09/27 08:47:54;;;;;;;6.35;5.50;;;20.30;99.90;;;;;;5090474;28;20139;-66
2023/09/27 08:50:20;;;;;;;8.32;5.43;;;20.30;99.90;;;;;;5091255;28;20024;-63
2023/09/27 08:52:50;;;;;;;9.38;6.20;;;20.40;99.90;;;;;;5091487;28;20024;-63
2023/09/27 08:55:17;;;;;;;8.63;5.50;;;20.60;99.90;;;;;;5091076;28;20031;-65
2023/09/27 08:57:48;;;;;;;8.93;5.18;;;20.80;99.90;;;;;;5091197;28;20080;-66
2023/09/27 09:00:16;;;;;;;6.05;5.05;;;21.10;99.90;;;;;;5091008;28;20122;-65
2023/09/27 09:02:48;;;;;;;6.60;5.38;;;21.40;99.90;;;;;;5090617;28;20068;-65
2023/09/27 09:05:16;;;;;;;6.13;4.82;;;21.70;99.90;;;;;;5093893;28;20024;-65
2023/09/27 09:07:41;;;;;;;6.97;5.00;;;21.80;99.90;;;;;;5094601;28;20047;-65
2023/09/27 09:10:13;;;;;;;6.55;4.85;;;21.90;99.90;;;;;;5094727;28;20406;-65
2023/09/27 09:12:40;;;;;;;7.65;5.13;;;22.00;99.90;;;;;;5092904;28;20556;-65
2023/09/27 09:15:06;;;;;;;5.70;5.13;;;21.90;99.90;;;;;;5094321;28;20024;-64
2023/09/27 09:17:36;;;;;;;6.43;5.53;;;22.10;99.90;;;;;;5094498;28;20098;-64
2023/09/27 09:20:26;;;;;;;7.18;4.80;;;22.20;99.90;;;;;;5094608;28;20032;-65
2023/09/27 09:22:54;;;;;;;10.35;5.32;;;22.20;99.90;;;;;;5094636;28;20017;-65
2023/09/27 09:25:24;;;;;;;7.63;5.00;;;22.30;99.90;;;;;;5094228;28;20126;-67
2023/09/27 09:28:09;;;;;;;6.45;4.78;;;22.40;99.90;;;;;;5094478;28;20036;-62
2023/09/27 09:30:39;;;;;;;10.65;5.10;;;22.50;99.90;;;;;;5094508;28;20398;-67
2023/09/27 09:33:21;;;;;;;6.45;5.35;;;22.50;99.90;;;;;;5094693;28;20390;-65
2023/09/27 09:35:47;;;;;;;6.60;5.40;;;22.50;99.90;;;;;;5094681;28;20020;-66
2023/09/27 09:38:22;;;;;;;6.70;4.97;;;22.40;99.90;;;;;;5094618;28;20032;-66
2023/09/27 09:40:56;;;;;;;7.47;4.65;;;22.30;99.90;;;;;;5094521;28;20028;-66
2023/09/27 09:43:28;;;;;;;6.50;5.43;;;22.30;99.90;;;;;;5094379;28;20028;-67
2023/09/27 09:45:54;;;;;;;6.88;5.10;;;22.30;99.90;;;;;;5094336;28;20036;-67
2023/09/27 09:48:21;;;;;;;10.32;5.28;;;22.30;99.90;;;;;;5094450;28;20301;-67
2023/09/27 09:50:49;;;;;;;6.80;5.20;;;22.40;99.90;;;;;;5094404;28;20115;-66
2023/09/27 09:53:16;;;;;;;6.95;5.18;;;22.40;99.90;;;;;;5093864;28;20024;-67
2023/09/27 09:55:44;;;;;;;10.00;4.88;;;22.50;99.90;;;;;;5094303;28;20028;-67
2023/09/27 09:58:10;;;;;;;6.10;4.93;;;22.60;99.90;;;;;;5094119;28;20057;-66
2023/09/27 10:00:40;;;;;;;8.73;5.22;;;22.80;99.90;;;;;;5093937;28;20109;-66
2023/09/27 10:03:09;;;;;;;6.20;4.80;;;22.90;99.90;;;;;;5094226;28;20032;-66
2023/09/27 10:05:39;;;;;;;7.03;4.60;;;22.90;99.90;;;;;;5094513;28;20031;-65
2023/09/27 10:08:06;;;;;;;5.90;4.18;;;23.00;99.90;;;;;;5092621;28;20485;-67
2023/09/27 10:10:33;;;;;;;5.57;4.60;;;23.20;99.90;;;;;;5092671;28;20030;-66
2023/09/27 10:13:00;;;;;;;5.60;4.28;;;23.30;99.90;;;;;;5092663;28;20039;-66
2023/09/27 10:15:27;;;;;;;7.45;5.07;;;23.40;99.90;;;;;;5092606;28;20402;-67
2023/09/27 10:18:00;;;;;;;39.13;29.17;;;23.50;99.90;;;;;;5092667;28;20012;-67
2023/09/27 10:20:26;;;;;;;60.33;43.90;;;23.40;99.90;;;;;;5092744;28;20077;-66
2023/09/27 10:22:52;;;;;;;82.68;57.63;;;23.40;99.90;;;;;;5092720;28;20286;-66
2023/09/27 10:25:24;;;;;;;188.98;124.30;;;23.50;99.90;;;;;;5092354;28;20559;-67
2023/09/27 10:28:01;;;;;;;81.75;55.60;;;23.60;99.90;;;;;;5092117;28;20032;-66
2023/09/27 10:30:39;;;;;;;42.40;31.50;;;23.80;99.90;;;;;;5092541;28;20031;-65
2023/09/27 10:33:18;;;;;;;26.52;17.70;;;24.00;99.90;;;;;;5092567;28;20032;-66
2023/09/27 10:36:00;;;;;;;12.18;9.88;;;24.20;99.90;;;;;;5092778;28;20026;-66
2023/09/27 10:38:48;;;;;;;19.08;13.43;;;24.40;99.90;;;;;;5092784;28;20035;-65
2023/09/27 10:41:32;;;;;;;10.63;7.90;;;24.70;99.90;;;;;;5091981;28;20047;-67
2023/09/27 10:43:59;;;;;;;13.48;9.88;;;24.80;99.90;;;;;;5091933;28;20039;-66
2023/09/27 10:46:25;;;;;;;13.55;10.15;;;25.00;99.90;;;;;;5092007;28;20394;-66
2023/09/27 10:49:00;;;;;;;6.60;4.95;;;25.20;99.90;;;;;;5092637;28;20517;-66
2023/09/27 10:51:26;;;;;;;8.07;5.18;;;25.20;99.90;;;;;;5092024;28;20028;-66
2023/09/27 10:53:55;;;;;;;5.97;4.63;;;25.40;99.90;;;;;;5091919;28;20028;-66
2023/09/27 10:56:21;;;;;;;8.02;4.80;;;25.60;99.90;;;;;;5091819;28;20024;-66
2023/09/27 10:58:49;;;;;;;9.70;4.93;;;25.60;99.90;;;;;;5091786;28;20081;-66
2023/09/27 11:01:23;;;;;;;6.53;4.80;;;25.50;99.90;;;;;;5092225;28;20438;-66
2023/09/27 11:04:01;;;;;;;6.85;3.85;;;25.40;99.90;;;;;;5090397;28;20020;-66
2023/09/27 11:06:28;;;;;;;5.57;3.97;;;25.70;99.90;;;;;;5047047;28;1269513;-65
2023/09/27 11:09:12;;;;;;;7.00;3.88;;;25.70;99.90;;;;;;5092985;28;20490;-66
2023/09/27 11:11:44;;;;;;;4.97;3.65;;;25.80;99.90;;;;;;5092318;28;20183;-66
2023/09/27 11:14:10;;;;;;;4.78;3.45;;;25.90;99.90;;;;;;5092667;28;20034;-66
2023/09/27 11:16:35;;;;;;;6.07;3.67;;;26.00;99.90;;;;;;5092689;28;20091;-64
2023/09/27 11:19:02;;;;;;;5.03;3.40;;;25.90;99.90;;;;;;5092695;28;20028;-64
2023/09/27 11:21:28;;;;;;;4.65;3.47;;;25.80;99.90;;;;;;5092570;28;20046;-65
2023/09/27 11:23:55;;;;;;;7.00;3.58;;;25.90;99.90;;;;;;5092821;28;20426;-64
2023/09/27 11:26:22;;;;;;;4.82;3.10;;;26.00;99.90;;;;;;5091808;28;20050;-64
2023/09/27 11:29:07;;;;;;;5.55;3.10;;;26.10;99.90;;;;;;5092378;28;20073;-64
2023/09/27 11:31:32;;;;;;;4.30;3.20;;;26.20;99.90;;;;;;5092530;28;20039;-64
2023/09/27 11:34:17;;;;;;;5.63;3.10;;;26.30;99.90;;;;;;5092398;28;20028;-64
2023/09/27 11:36:48;;;;;;;5.10;2.90;;;26.30;99.90;;;;;;5092379;28;20476;-64
2023/09/27 11:39:15;;;;;;;4.28;2.70;;;26.30;99.90;;;;;;5092564;28;20028;-64
2023/09/27 11:41:42;;;;;;;3.50;2.95;;;26.40;99.90;;;;;;5092046;28;20035;-64
2023/09/27 11:44:23;;;;;;;6.10;2.95;;;26.30;99.90;;;;;;5092198;28;20060;-64
2023/09/27 11:46:50;;;;;;;5.57;2.60;;;26.20;99.90;;;;;;5091996;28;20443;-64
2023/09/27 11:49:17;;;;;;;3.53;2.65;;;26.40;99.90;;;;;;5092498;28;20081;-64
2023/09/27 11:51:43;;;;;;;5.57;2.67;;;26.50;99.90;;;;;;5092112;28;20027;-64
2023/09/27 11:54:12;;;;;;;4.57;2.60;;;26.60;99.90;;;;;;5091994;28;20028;-64
2023/09/27 11:56:38;;;;;;;4.47;2.70;;;26.70;99.90;;;;;;5091514;28;20286;-64
2023/09/27 11:59:04;;;;;;;5.60;2.70;;;26.80;99.90;;;;;;5092557;28;20103;-64
2023/09/27 12:01:31;;;;;;;3.35;2.60;;;26.90;99.90;;;;;;5092268;28;20021;-63
2023/09/27 12:03:58;;;;;;;4.53;2.72;;;26.80;99.90;;;;;;5090377;28;20024;-64
2023/09/27 12:06:25;;;;;;;4.53;2.38;;;27.00;99.90;;;;;;5090297;28;20459;-64
2023/09/27 12:08:51;;;;;;;5.25;2.60;;;26.90;99.90;;;;;;5091699;28;20074;-63
2023/09/27 12:11:17;;;;;;;3.45;2.33;;;27.00;99.90;;;;;;5091611;28;20145;-64
2023/09/27 12:13:42;;;;;;;3.22;2.50;;;27.20;99.90;;;;;;5091804;28;20028;-64
2023/09/27 12:16:09;;;;;;;2.53;2.15;;;27.30;99.90;;;;;;5091873;28;20036;-64
2023/09/27 12:18:34;;;;;;;4.90;2.35;;;27.50;99.90;;;;;;5090069;28;20085;-64
2023/09/27 12:21:00;;;;;;;3.65;2.63;;;27.70;99.90;;;;;;5092002;28;20432;-64
2023/09/27 12:23:26;;;;;;;4.15;2.50;;;27.80;99.90;;;;;;5091468;28;20441;-64
2023/09/27 12:25:52;;;;;;;5.38;2.20;;;28.00;99.90;;;;;;5091422;28;20028;-64
2023/09/27 12:28:19;;;;;;;4.63;2.53;;;28.10;99.90;;;;;;5091529;28;20441;-63
2023/09/27 12:30:45;;;;;;;3.03;2.42;;;28.20;99.90;;;;;;5091476;28;20016;-64
2023/09/27 12:33:12;;;;;;;3.05;2.60;;;28.20;99.90;;;;;;5091265;28;20424;-64
2023/09/27 12:35:38;;;;;;;3.00;2.28;;;28.30;99.90;;;;;;5091144;28;20028;-64
2023/09/27 12:38:06;;;;;;;3.92;2.45;;;28.30;99.90;;;;;;5090687;28;20031;-64
2023/09/27 12:40:32;;;;;;;4.78;2.30;;;28.30;99.90;;;;;;5091528;28;20509;-64
2023/09/27 12:42:58;;;;;;;3.53;2.20;;;28.20;99.90;;;;;;5091221;28;20028;-64
2023/09/27 12:45:24;;;;;;;2.85;2.00;;;28.10;99.90;;;;;;5091254;28;20020;-64